sensor_id;sensor_type;location;lat;lon;timestamp;P1;durP1;ratioP1;P2;durP2;ratioP2
34836;SDS011;21053;50.848;4.652;2024-02-26T00:01:11;166.20;;;151.05;;
34836;SDS011;21053;50.848;4.652;2024-02-26T00:03:38;166.25;;;150.70;;
34836;SDS011;21053;50.848;4.652;2024-02-26T00:06:08;136.95;;;125.10;;
34836;SDS011;21053;50.848;4.652;2024-02-26T00:08:34;159.43;;;145.40;;
34836;SDS011;21053;50.848;4.652;2024-02-26T00:13:31;150.95;;;137.55;;
34836;SDS011;21053;50.848;4.652;2024-02-26T00:15:57;117.65;;;107.35;;
34836;SDS011;21053;50.848;4.652;2024-02-26T00:18:24;129.27;;;118.15;;
34836;SDS011;21053;50.848;4.652;2024-02-26T00:20:51;120.22;;;109.60;;
34836;SDS011;21053;50.848;4.652;2024-02-26T00:23:19;135.40;;;123.40;;
34836;SDS011;21053;50.848;4.652;2024-02-26T00:25:46;148.13;;;135.07;;
34836;SDS011;21053;50.848;4.652;2024-02-26T00:28:18;118.72;;;108.47;;
34836;SDS011;21053;50.848;4.652;2024-02-26T00:33:17;139.05;;;127.03;;
34836;SDS011;21053;50.848;4.652;2024-02-26T00:38:11;116.72;;;106.75;;
34836;SDS011;21053;50.848;4.652;2024-02-26T00:40:40;159.48;;;145.48;;
34836;SDS011;21053;50.848;4.652;2024-02-26T00:43:09;125.75;;;114.95;;
34836;SDS011;21053;50.848;4.652;2024-02-26T00:45:38;138.30;;;126.32;;
34836;SDS011;21053;50.848;4.652;2024-02-26T00:48:05;126.03;;;115.13;;
34836;SDS011;21053;50.848;4.652;2024-02-26T00:50:36;135.63;;;123.60;;
34836;SDS011;21053;50.848;4.652;2024-02-26T00:53:02;151.82;;;139.15;;
34836;SDS011;21053;50.848;4.652;2024-02-26T00:55:29;139.95;;;127.75;;
34836;SDS011;21053;50.848;4.652;2024-02-26T01:00:27;136.20;;;124.47;;
34836;SDS011;21053;50.848;4.652;2024-02-26T01:02:56;117.07;;;107.20;;
34836;SDS011;21053;50.848;4.652;2024-02-26T01:05:23;164.35;;;150.45;;
34836;SDS011;21053;50.848;4.652;2024-02-26T01:07:52;141.98;;;130.18;;
34836;SDS011;21053;50.848;4.652;2024-02-26T01:10:20;138.65;;;127.18;;
34836;SDS011;21053;50.848;4.652;2024-02-26T01:12:48;131.18;;;120.45;;
34836;SDS011;21053;50.848;4.652;2024-02-26T01:15:15;156.98;;;144.02;;
34836;SDS011;21053;50.848;4.652;2024-02-26T01:20:16;149.07;;;136.82;;
34836;SDS011;21053;50.848;4.652;2024-02-26T01:27:43;138.40;;;126.25;;
34836;SDS011;21053;50.848;4.652;2024-02-26T01:30:11;146.63;;;134.85;;
34836;SDS011;21053;50.848;4.652;2024-02-26T01:35:22;163.48;;;149.85;;
34836;SDS011;21053;50.848;4.652;2024-02-26T01:37:48;130.23;;;119.68;;
34836;SDS011;21053;50.848;4.652;2024-02-26T01:40:17;134.93;;;123.93;;
34836;SDS011;21053;50.848;4.652;2024-02-26T01:42:45;116.97;;;107.53;;
34836;SDS011;21053;50.848;4.652;2024-02-26T01:45:15;123.97;;;113.85;;
34836;SDS011;21053;50.848;4.652;2024-02-26T01:47:50;125.07;;;114.88;;
34836;SDS011;21053;50.848;4.652;2024-02-26T01:50:17;128.38;;;118.15;;
34836;SDS011;21053;50.848;4.652;2024-02-26T01:52:47;113.55;;;104.28;;
34836;SDS011;21053;50.848;4.652;2024-02-26T01:55:18;128.85;;;118.40;;
34836;SDS011;21053;50.848;4.652;2024-02-26T01:57:45;129.70;;;119.00;;
34836;SDS011;21053;50.848;4.652;2024-02-26T02:00:13;135.18;;;124.20;;
34836;SDS011;21053;50.848;4.652;2024-02-26T02:02:42;119.57;;;109.97;;
34836;SDS011;21053;50.848;4.652;2024-02-26T02:05:11;110.10;;;101.40;;
34836;SDS011;21053;50.848;4.652;2024-02-26T02:10:07;96.10;;;88.57;;
34836;SDS011;21053;50.848;4.652;2024-02-26T02:15:06;123.65;;;113.68;;
34836;SDS011;21053;50.848;4.652;2024-02-26T02:20:04;123.85;;;113.82;;
34836;SDS011;21053;50.848;4.652;2024-02-26T02:25:11;117.07;;;107.88;;
34836;SDS011;21053;50.848;4.652;2024-02-26T02:27:40;109.53;;;100.68;;
34836;SDS011;21053;50.848;4.652;2024-02-26T02:30:09;122.43;;;112.55;;
34836;SDS011;21053;50.848;4.652;2024-02-26T02:32:39;105.75;;;97.38;;
34836;SDS011;21053;50.848;4.652;2024-02-26T02:35:12;116.43;;;107.00;;
34836;SDS011;21053;50.848;4.652;2024-02-26T02:40:15;119.38;;;109.78;;
34836;SDS011;21053;50.848;4.652;2024-02-26T02:42:44;120.95;;;111.30;;
34836;SDS011;21053;50.848;4.652;2024-02-26T02:47:40;116.22;;;106.93;;
34836;SDS011;21053;50.848;4.652;2024-02-26T02:50:07;109.65;;;100.80;;
34836;SDS011;21053;50.848;4.652;2024-02-26T02:52:36;121.50;;;110.78;;
34836;SDS011;21053;50.848;4.652;2024-02-26T02:55:03;107.05;;;98.60;;
34836;SDS011;21053;50.848;4.652;2024-02-26T02:57:32;106.95;;;98.45;;
34836;SDS011;21053;50.848;4.652;2024-02-26T02:59:59;104.60;;;96.13;;
34836;SDS011;21053;50.848;4.652;2024-02-26T03:02:28;116.10;;;106.80;;
34836;SDS011;21053;50.848;4.652;2024-02-26T03:07:25;132.02;;;121.43;;
34836;SDS011;21053;50.848;4.652;2024-02-26T03:09:51;126.60;;;116.10;;
34836;SDS011;21053;50.848;4.652;2024-02-26T03:14:46;121.13;;;111.25;;
34836;SDS011;21053;50.848;4.652;2024-02-26T03:17:18;126.43;;;116.00;;
34836;SDS011;21053;50.848;4.652;2024-02-26T03:22:21;126.22;;;115.63;;
34836;SDS011;21053;50.848;4.652;2024-02-26T03:24:50;126.22;;;115.82;;
34836;SDS011;21053;50.848;4.652;2024-02-26T03:27:16;123.70;;;113.45;;
34836;SDS011;21053;50.848;4.652;2024-02-26T03:32:14;121.47;;;111.43;;
34836;SDS011;21053;50.848;4.652;2024-02-26T03:37:11;125.00;;;114.78;;
34836;SDS011;21053;50.848;4.652;2024-02-26T03:42:09;116.00;;;105.93;;
34836;SDS011;21053;50.848;4.652;2024-02-26T03:44:38;118.13;;;108.40;;
34836;SDS011;21053;50.848;4.652;2024-02-26T03:47:03;142.88;;;131.05;;
34836;SDS011;21053;50.848;4.652;2024-02-26T03:49:29;130.30;;;119.60;;
34836;SDS011;21053;50.848;4.652;2024-02-26T03:51:58;111.15;;;102.00;;
34836;SDS011;21053;50.848;4.652;2024-02-26T03:56:55;137.32;;;125.90;;
34836;SDS011;21053;50.848;4.652;2024-02-26T03:59:24;128.07;;;117.30;;
34836;SDS011;21053;50.848;4.652;2024-02-26T04:01:53;142.77;;;130.90;;
34836;SDS011;21053;50.848;4.652;2024-02-26T04:04:25;105.90;;;97.22;;
34836;SDS011;21053;50.848;4.652;2024-02-26T04:06:51;132.50;;;120.68;;
34836;SDS011;21053;50.848;4.652;2024-02-26T04:11:49;124.10;;;113.70;;
34836;SDS011;21053;50.848;4.652;2024-02-26T04:16:57;112.72;;;103.35;;
34836;SDS011;21053;50.848;4.652;2024-02-26T04:21:54;105.47;;;96.68;;
34836;SDS011;21053;50.848;4.652;2024-02-26T04:26:50;111.80;;;102.45;;
34836;SDS011;21053;50.848;4.652;2024-02-26T04:29:16;114.97;;;105.47;;
34836;SDS011;21053;50.848;4.652;2024-02-26T04:34:13;106.93;;;98.00;;
34836;SDS011;21053;50.848;4.652;2024-02-26T04:39:12;111.22;;;101.75;;
34836;SDS011;21053;50.848;4.652;2024-02-26T04:44:21;129.88;;;118.88;;
34836;SDS011;21053;50.848;4.652;2024-02-26T04:46:52;129.70;;;118.55;;
34836;SDS011;21053;50.848;4.652;2024-02-26T04:49:18;117.75;;;107.47;;
34836;SDS011;21053;50.848;4.652;2024-02-26T04:51:45;103.80;;;94.97;;
34836;SDS011;21053;50.848;4.652;2024-02-26T04:54:14;101.10;;;91.93;;
34836;SDS011;21053;50.848;4.652;2024-02-26T04:56:47;108.35;;;99.10;;
34836;SDS011;21053;50.848;4.652;2024-02-26T04:59:16;91.60;;;84.05;;
34836;SDS011;21053;50.848;4.652;2024-02-26T05:01:45;125.68;;;114.95;;
34836;SDS011;21053;50.848;4.652;2024-02-26T05:04:14;124.45;;;113.97;;
34836;SDS011;21053;50.848;4.652;2024-02-26T05:06:42;134.85;;;122.55;;
34836;SDS011;21053;50.848;4.652;2024-02-26T05:11:40;119.65;;;109.38;;
34836;SDS011;21053;50.848;4.652;2024-02-26T05:14:08;113.95;;;104.20;;
34836;SDS011;21053;50.848;4.652;2024-02-26T05:16:36;116.35;;;106.65;;
34836;SDS011;21053;50.848;4.652;2024-02-26T05:19:03;97.82;;;89.55;;
34836;SDS011;21053;50.848;4.652;2024-02-26T05:21:33;123.38;;;112.78;;
34836;SDS011;21053;50.848;4.652;2024-02-26T05:26:31;100.45;;;91.72;;
34836;SDS011;21053;50.848;4.652;2024-02-26T05:31:28;106.18;;;97.10;;
34836;SDS011;21053;50.848;4.652;2024-02-26T05:36:27;102.15;;;93.15;;
34836;SDS011;21053;50.848;4.652;2024-02-26T05:38:59;130.50;;;118.82;;
34836;SDS011;21053;50.848;4.652;2024-02-26T05:43:56;96.22;;;87.78;;
34836;SDS011;21053;50.848;4.652;2024-02-26T05:46:22;106.93;;;97.10;;
34836;SDS011;21053;50.848;4.652;2024-02-26T05:48:51;119.00;;;108.20;;
34836;SDS011;21053;50.848;4.652;2024-02-26T05:51:23;86.90;;;78.90;;
34836;SDS011;21053;50.848;4.652;2024-02-26T05:53:52;78.35;;;71.35;;
34836;SDS011;21053;50.848;4.652;2024-02-26T05:56:22;89.38;;;81.13;;
34836;SDS011;21053;50.848;4.652;2024-02-26T05:58:50;86.53;;;78.70;;
34836;SDS011;21053;50.848;4.652;2024-02-26T06:01:16;79.35;;;72.07;;
34836;SDS011;21053;50.848;4.652;2024-02-26T06:03:45;95.78;;;87.05;;
34836;SDS011;21053;50.848;4.652;2024-02-26T06:06:13;74.45;;;67.95;;
34836;SDS011;21053;50.848;4.652;2024-02-26T06:08:40;77.15;;;69.95;;
34836;SDS011;21053;50.848;4.652;2024-02-26T06:11:06;79.22;;;71.95;;
34836;SDS011;21053;50.848;4.652;2024-02-26T06:13:36;78.43;;;71.43;;
34836;SDS011;21053;50.848;4.652;2024-02-26T06:18:34;56.25;;;51.42;;
34836;SDS011;21053;50.848;4.652;2024-02-26T06:23:31;85.47;;;77.82;;
34836;SDS011;21053;50.848;4.652;2024-02-26T06:26:09;62.33;;;56.78;;
34836;SDS011;21053;50.848;4.652;2024-02-26T06:31:05;85.47;;;77.25;;
34836;SDS011;21053;50.848;4.652;2024-02-26T06:36:03;79.50;;;72.15;;
34836;SDS011;21053;50.848;4.652;2024-02-26T06:38:31;77.82;;;70.20;;
34836;SDS011;21053;50.848;4.652;2024-02-26T06:43:28;76.70;;;69.72;;
34836;SDS011;21053;50.848;4.652;2024-02-26T06:45:57;78.20;;;71.28;;
34836;SDS011;21053;50.848;4.652;2024-02-26T06:48:24;98.97;;;89.95;;
34836;SDS011;21053;50.848;4.652;2024-02-26T06:53:20;115.80;;;105.18;;
34836;SDS011;21053;50.848;4.652;2024-02-26T06:55:49;86.60;;;78.57;;
34836;SDS011;21053;50.848;4.652;2024-02-26T07:00:47;88.53;;;80.50;;
34836;SDS011;21053;50.848;4.652;2024-02-26T07:05:41;102.28;;;92.75;;
34836;SDS011;21053;50.848;4.652;2024-02-26T07:08:10;71.85;;;65.47;;
34836;SDS011;21053;50.848;4.652;2024-02-26T07:10:39;79.18;;;72.07;;
34836;SDS011;21053;50.848;4.652;2024-02-26T07:13:07;69.65;;;63.50;;
34836;SDS011;21053;50.848;4.652;2024-02-26T07:15:36;70.03;;;63.70;;
34836;SDS011;21053;50.848;4.652;2024-02-26T07:18:08;73.22;;;66.65;;
34836;SDS011;21053;50.848;4.652;2024-02-26T07:20:38;101.63;;;92.55;;
34836;SDS011;21053;50.848;4.652;2024-02-26T07:23:05;82.85;;;75.32;;
34836;SDS011;21053;50.848;4.652;2024-02-26T07:25:31;94.60;;;86.25;;
34836;SDS011;21053;50.848;4.652;2024-02-26T07:28:03;70.30;;;64.47;;
34836;SDS011;21053;50.848;4.652;2024-02-26T07:30:31;82.85;;;75.38;;
34836;SDS011;21053;50.848;4.652;2024-02-26T07:32:59;92.30;;;84.45;;
34836;SDS011;21053;50.848;4.652;2024-02-26T07:35:27;88.00;;;80.35;;
34836;SDS011;21053;50.848;4.652;2024-02-26T07:44:18;86.88;;;79.38;;
34836;SDS011;21053;50.848;4.652;2024-02-26T07:46:45;88.07;;;80.35;;
34836;SDS011;21053;50.848;4.652;2024-02-26T07:49:14;87.85;;;79.93;;
34836;SDS011;21053;50.848;4.652;2024-02-26T07:54:09;76.38;;;69.85;;
34836;SDS011;21053;50.848;4.652;2024-02-26T07:56:37;74.40;;;68.13;;
34836;SDS011;21053;50.848;4.652;2024-02-26T07:59:05;73.20;;;66.95;;
34836;SDS011;21053;50.848;4.652;2024-02-26T08:01:33;61.67;;;56.47;;
34836;SDS011;21053;50.848;4.652;2024-02-26T08:04:01;106.72;;;97.20;;
34836;SDS011;21053;50.848;4.652;2024-02-26T08:06:28;73.32;;;66.22;;
34836;SDS011;21053;50.848;4.652;2024-02-26T08:11:26;73.15;;;66.75;;
34836;SDS011;21053;50.848;4.652;2024-02-26T08:13:53;75.45;;;68.88;;
34836;SDS011;21053;50.848;4.652;2024-02-26T08:16:20;108.55;;;99.38;;
34836;SDS011;21053;50.848;4.652;2024-02-26T08:18:47;72.57;;;66.28;;
34836;SDS011;21053;50.848;4.652;2024-02-26T08:21:13;77.15;;;70.47;;
34836;SDS011;21053;50.848;4.652;2024-02-26T08:23:40;75.68;;;68.82;;
34836;SDS011;21053;50.848;4.652;2024-02-26T08:26:07;67.35;;;61.17;;
34836;SDS011;21053;50.848;4.652;2024-02-26T08:31:06;89.50;;;81.30;;
34836;SDS011;21053;50.848;4.652;2024-02-26T08:33:35;79.93;;;73.10;;
34836;SDS011;21053;50.848;4.652;2024-02-26T08:36:11;90.78;;;82.60;;
34836;SDS011;21053;50.848;4.652;2024-02-26T08:38:40;74.70;;;67.75;;
34836;SDS011;21053;50.848;4.652;2024-02-26T08:41:05;101.30;;;91.93;;
34836;SDS011;21053;50.848;4.652;2024-02-26T08:43:32;71.22;;;65.10;;
34836;SDS011;21053;50.848;4.652;2024-02-26T08:45:59;83.60;;;76.32;;
34836;SDS011;21053;50.848;4.652;2024-02-26T08:48:30;69.55;;;63.22;;
34836;SDS011;21053;50.848;4.652;2024-02-26T08:50:57;90.38;;;82.00;;
34836;SDS011;21053;50.848;4.652;2024-02-26T08:58:27;60.25;;;54.83;;
34836;SDS011;21053;50.848;4.652;2024-02-26T09:00:54;97.72;;;89.07;;
34836;SDS011;21053;50.848;4.652;2024-02-26T09:03:21;91.10;;;82.38;;
34836;SDS011;21053;50.848;4.652;2024-02-26T09:05:50;88.97;;;80.80;;
34836;SDS011;21053;50.848;4.652;2024-02-26T09:10:44;57.55;;;52.13;;
34836;SDS011;21053;50.848;4.652;2024-02-26T09:13:11;95.85;;;86.93;;
34836;SDS011;21053;50.848;4.652;2024-02-26T09:15:37;85.32;;;77.47;;
34836;SDS011;21053;50.848;4.652;2024-02-26T09:18:03;81.10;;;73.57;;
34836;SDS011;21053;50.848;4.652;2024-02-26T09:22:58;88.75;;;80.47;;
34836;SDS011;21053;50.848;4.652;2024-02-26T09:27:54;87.90;;;79.95;;
34836;SDS011;21053;50.848;4.652;2024-02-26T09:30:19;96.63;;;87.72;;
34836;SDS011;21053;50.848;4.652;2024-02-26T09:32:46;94.43;;;86.30;;
34836;SDS011;21053;50.848;4.652;2024-02-26T09:35:13;107.68;;;97.95;;
34836;SDS011;21053;50.848;4.652;2024-02-26T09:37:39;94.90;;;86.70;;
34836;SDS011;21053;50.848;4.652;2024-02-26T09:40:05;91.53;;;83.45;;
34836;SDS011;21053;50.848;4.652;2024-02-26T09:42:37;88.68;;;80.88;;
34836;SDS011;21053;50.848;4.652;2024-02-26T09:45:06;102.45;;;93.25;;
34836;SDS011;21053;50.848;4.652;2024-02-26T09:47:39;91.65;;;83.90;;
34836;SDS011;21053;50.848;4.652;2024-02-26T09:50:06;89.88;;;81.97;;
34836;SDS011;21053;50.848;4.652;2024-02-26T09:52:35;122.75;;;111.93;;
34836;SDS011;21053;50.848;4.652;2024-02-26T09:55:04;104.20;;;95.30;;
34836;SDS011;21053;50.848;4.652;2024-02-26T09:57:36;133.15;;;121.25;;
34836;SDS011;21053;50.848;4.652;2024-02-26T10:00:05;103.38;;;94.40;;
34836;SDS011;21053;50.848;4.652;2024-02-26T10:02:35;98.95;;;90.10;;
34836;SDS011;21053;50.848;4.652;2024-02-26T10:05:04;108.07;;;98.10;;
34836;SDS011;21053;50.848;4.652;2024-02-26T10:10:01;124.88;;;113.97;;
34836;SDS011;21053;50.848;4.652;2024-02-26T10:12:33;100.43;;;91.80;;
34836;SDS011;21053;50.848;4.652;2024-02-26T10:15:00;112.60;;;102.40;;
34836;SDS011;21053;50.848;4.652;2024-02-26T10:17:29;131.43;;;119.28;;
34836;SDS011;21053;50.848;4.652;2024-02-26T10:20:10;101.53;;;92.63;;
34836;SDS011;21053;50.848;4.652;2024-02-26T10:22:38;114.13;;;103.80;;
34836;SDS011;21053;50.848;4.652;2024-02-26T10:25:04;99.22;;;90.70;;
34836;SDS011;21053;50.848;4.652;2024-02-26T10:27:32;96.70;;;88.25;;
34836;SDS011;21053;50.848;4.652;2024-02-26T10:32:30;108.47;;;98.82;;
34836;SDS011;21053;50.848;4.652;2024-02-26T10:34:57;106.70;;;97.50;;
34836;SDS011;21053;50.848;4.652;2024-02-26T10:37:23;104.57;;;95.28;;
34836;SDS011;21053;50.848;4.652;2024-02-26T10:39:53;108.50;;;99.22;;
34836;SDS011;21053;50.848;4.652;2024-02-26T10:42:19;89.75;;;82.03;;
34836;SDS011;21053;50.848;4.652;2024-02-26T10:44:48;112.63;;;101.75;;
34836;SDS011;21053;50.848;4.652;2024-02-26T10:47:14;94.32;;;86.43;;
34836;SDS011;21053;50.848;4.652;2024-02-26T10:49:46;115.25;;;105.57;;
34836;SDS011;21053;50.848;4.652;2024-02-26T10:52:18;101.45;;;92.70;;
34836;SDS011;21053;50.848;4.652;2024-02-26T10:57:16;122.10;;;110.97;;
34836;SDS011;21053;50.848;4.652;2024-02-26T10:59:45;109.68;;;100.13;;
34836;SDS011;21053;50.848;4.652;2024-02-26T11:02:13;123.35;;;112.18;;
34836;SDS011;21053;50.848;4.652;2024-02-26T11:04:40;137.68;;;125.50;;
34836;SDS011;21053;50.848;4.652;2024-02-26T11:07:09;104.22;;;95.07;;
34836;SDS011;21053;50.848;4.652;2024-02-26T11:12:10;117.45;;;107.38;;
34836;SDS011;21053;50.848;4.652;2024-02-26T11:14:40;124.43;;;113.60;;
34836;SDS011;21053;50.848;4.652;2024-02-26T11:17:09;116.70;;;106.55;;
34836;SDS011;21053;50.848;4.652;2024-02-26T11:19:37;121.10;;;110.53;;
34836;SDS011;21053;50.848;4.652;2024-02-26T11:22:04;118.90;;;108.47;;
34836;SDS011;21053;50.848;4.652;2024-02-26T11:24:31;103.88;;;94.72;;
34836;SDS011;21053;50.848;4.652;2024-02-26T11:27:01;116.82;;;106.57;;
34836;SDS011;21053;50.848;4.652;2024-02-26T11:32:09;135.45;;;123.30;;
34836;SDS011;21053;50.848;4.652;2024-02-26T11:37:17;156.00;;;142.77;;
34836;SDS011;21053;50.848;4.652;2024-02-26T11:39:48;138.18;;;126.20;;
34836;SDS011;21053;50.848;4.652;2024-02-26T11:42:17;107.13;;;97.50;;
34836;SDS011;21053;50.848;4.652;2024-02-26T11:44:48;127.18;;;116.00;;
34836;SDS011;21053;50.848;4.652;2024-02-26T11:47:21;103.90;;;95.03;;
34836;SDS011;21053;50.848;4.652;2024-02-26T11:49:51;113.68;;;103.93;;
34836;SDS011;21053;50.848;4.652;2024-02-26T11:54:49;135.48;;;123.82;;
34836;SDS011;21053;50.848;4.652;2024-02-26T11:59:56;146.32;;;133.80;;
34836;SDS011;21053;50.848;4.652;2024-02-26T12:07:55;147.52;;;134.68;;
34836;SDS011;21053;50.848;4.652;2024-02-26T12:10:30;146.38;;;133.93;;
34836;SDS011;21053;50.848;4.652;2024-02-26T12:15:38;142.30;;;129.55;;
34836;SDS011;21053;50.848;4.652;2024-02-26T12:18:07;118.38;;;107.97;;
34836;SDS011;21053;50.848;4.652;2024-02-26T12:20:36;129.68;;;118.40;;
34836;SDS011;21053;50.848;4.652;2024-02-26T12:23:02;116.00;;;105.95;;
34836;SDS011;21053;50.848;4.652;2024-02-26T12:25:33;98.90;;;90.28;;
34836;SDS011;21053;50.848;4.652;2024-02-26T12:28:01;104.72;;;95.90;;
34836;SDS011;21053;50.848;4.652;2024-02-26T12:30:30;117.47;;;107.28;;
34836;SDS011;21053;50.848;4.652;2024-02-26T12:35:28;136.60;;;124.80;;
34836;SDS011;21053;50.848;4.652;2024-02-26T12:38:00;112.63;;;102.82;;
34836;SDS011;21053;50.848;4.652;2024-02-26T12:40:29;128.38;;;117.55;;
34836;SDS011;21053;50.848;4.652;2024-02-26T12:42:55;136.60;;;124.85;;
34836;SDS011;21053;50.848;4.652;2024-02-26T12:45:24;133.75;;;122.43;;
34836;SDS011;21053;50.848;4.652;2024-02-26T12:47:54;148.68;;;136.00;;
34836;SDS011;21053;50.848;4.652;2024-02-26T12:52:53;145.02;;;132.75;;
34836;SDS011;21053;50.848;4.652;2024-02-26T12:55:20;152.18;;;138.82;;
34836;SDS011;21053;50.848;4.652;2024-02-26T12:57:49;135.30;;;123.38;;
34836;SDS011;21053;50.848;4.652;2024-02-26T13:00:20;142.98;;;130.93;;
34836;SDS011;21053;50.848;4.652;2024-02-26T13:05:24;125.57;;;114.95;;
34836;SDS011;21053;50.848;4.652;2024-02-26T13:07:56;137.05;;;125.05;;
34836;SDS011;21053;50.848;4.652;2024-02-26T13:10:24;153.32;;;140.25;;
34836;SDS011;21053;50.848;4.652;2024-02-26T13:12:53;149.73;;;136.68;;
34836;SDS011;21053;50.848;4.652;2024-02-26T13:15:20;141.60;;;129.73;;
34836;SDS011;21053;50.848;4.652;2024-02-26T13:17:47;160.98;;;147.20;;
34836;SDS011;21053;50.848;4.652;2024-02-26T13:20:29;137.40;;;125.65;;
34836;SDS011;21053;50.848;4.652;2024-02-26T13:23:09;139.55;;;127.63;;
34836;SDS011;21053;50.848;4.652;2024-02-26T13:25:37;120.10;;;109.85;;
34836;SDS011;21053;50.848;4.652;2024-02-26T13:30:53;161.85;;;148.15;;
34836;SDS011;21053;50.848;4.652;2024-02-26T13:33:32;138.10;;;126.50;;
34836;SDS011;21053;50.848;4.652;2024-02-26T13:36:04;147.40;;;134.70;;
34836;SDS011;21053;50.848;4.652;2024-02-26T13:40:58;132.38;;;121.10;;
34836;SDS011;21053;50.848;4.652;2024-02-26T13:43:26;114.22;;;103.72;;
34836;SDS011;21053;50.848;4.652;2024-02-26T13:45:58;122.07;;;111.47;;
34836;SDS011;21053;50.848;4.652;2024-02-26T13:48:23;143.82;;;131.48;;
34836;SDS011;21053;50.848;4.652;2024-02-26T13:50:53;129.50;;;118.60;;
34836;SDS011;21053;50.848;4.652;2024-02-26T13:53:19;108.20;;;98.93;;
34836;SDS011;21053;50.848;4.652;2024-02-26T13:55:49;145.75;;;133.38;;
34836;SDS011;21053;50.848;4.652;2024-02-26T13:58:40;132.73;;;121.25;;
34836;SDS011;21053;50.848;4.652;2024-02-26T14:01:07;125.13;;;114.30;;
34836;SDS011;21053;50.848;4.652;2024-02-26T14:03:34;124.88;;;114.22;;
34836;SDS011;21053;50.848;4.652;2024-02-26T14:06:00;135.27;;;123.75;;
34836;SDS011;21053;50.848;4.652;2024-02-26T14:10:56;173.75;;;159.05;;
34836;SDS011;21053;50.848;4.652;2024-02-26T14:15:54;116.53;;;106.63;;
34836;SDS011;21053;50.848;4.652;2024-02-26T14:20:50;155.10;;;142.00;;
34836;SDS011;21053;50.848;4.652;2024-02-26T14:23:18;144.88;;;132.60;;
34836;SDS011;21053;50.848;4.652;2024-02-26T14:25:46;147.70;;;135.15;;
34836;SDS011;21053;50.848;4.652;2024-02-26T14:28:13;141.48;;;129.65;;
34836;SDS011;21053;50.848;4.652;2024-02-26T14:30:41;137.18;;;125.22;;
34836;SDS011;21053;50.848;4.652;2024-02-26T14:33:09;157.23;;;143.98;;
34836;SDS011;21053;50.848;4.652;2024-02-26T14:35:34;146.85;;;134.07;;
34836;SDS011;21053;50.848;4.652;2024-02-26T14:38:00;150.13;;;137.73;;
34836;SDS011;21053;50.848;4.652;2024-02-26T14:40:28;147.07;;;134.57;;
34836;SDS011;21053;50.848;4.652;2024-02-26T14:42:56;140.95;;;128.93;;
34836;SDS011;21053;50.848;4.652;2024-02-26T14:45:23;124.85;;;113.85;;
34836;SDS011;21053;50.848;4.652;2024-02-26T14:47:51;169.85;;;155.48;;
34836;SDS011;21053;50.848;4.652;2024-02-26T14:50:20;155.15;;;142.02;;
34836;SDS011;21053;50.848;4.652;2024-02-26T14:52:46;141.23;;;129.07;;
34836;SDS011;21053;50.848;4.652;2024-02-26T14:55:12;134.02;;;122.80;;
34836;SDS011;21053;50.848;4.652;2024-02-26T14:57:44;129.25;;;118.15;;
34836;SDS011;21053;50.848;4.652;2024-02-26T15:02:40;118.35;;;107.72;;
34836;SDS011;21053;50.848;4.652;2024-02-26T15:05:09;125.18;;;114.13;;
34836;SDS011;21053;50.848;4.652;2024-02-26T15:07:42;119.25;;;108.57;;
34836;SDS011;21053;50.848;4.652;2024-02-26T15:10:10;120.32;;;109.60;;
34836;SDS011;21053;50.848;4.652;2024-02-26T15:12:38;102.15;;;93.18;;
34836;SDS011;21053;50.848;4.652;2024-02-26T15:17:32;145.18;;;132.52;;
34836;SDS011;21053;50.848;4.652;2024-02-26T15:20:01;140.75;;;127.70;;
34836;SDS011;21053;50.848;4.652;2024-02-26T15:22:27;87.05;;;79.38;;
34836;SDS011;21053;50.848;4.652;2024-02-26T15:24:53;105.50;;;96.15;;
34836;SDS011;21053;50.848;4.652;2024-02-26T15:27:18;120.45;;;109.72;;
34836;SDS011;21053;50.848;4.652;2024-02-26T15:29:47;111.45;;;101.65;;
34836;SDS011;21053;50.848;4.652;2024-02-26T15:32:12;129.85;;;118.55;;
34836;SDS011;21053;50.848;4.652;2024-02-26T15:37:07;128.20;;;116.68;;
34836;SDS011;21053;50.848;4.652;2024-02-26T15:39:34;120.03;;;109.07;;
34836;SDS011;21053;50.848;4.652;2024-02-26T15:42:04;137.68;;;124.95;;
34836;SDS011;21053;50.848;4.652;2024-02-26T15:47:15;129.75;;;118.18;;
34836;SDS011;21053;50.848;4.652;2024-02-26T15:49:44;112.97;;;102.80;;
34836;SDS011;21053;50.848;4.652;2024-02-26T15:52:10;102.88;;;93.90;;
34836;SDS011;21053;50.848;4.652;2024-02-26T15:54:41;102.93;;;94.00;;
34836;SDS011;21053;50.848;4.652;2024-02-26T15:57:07;105.13;;;95.97;;
34836;SDS011;21053;50.848;4.652;2024-02-26T15:59:38;111.93;;;102.03;;
34836;SDS011;21053;50.848;4.652;2024-02-26T16:02:05;116.78;;;106.72;;
34836;SDS011;21053;50.848;4.652;2024-02-26T16:04:34;122.50;;;111.63;;
34836;SDS011;21053;50.848;4.652;2024-02-26T16:07:03;101.82;;;93.20;;
34836;SDS011;21053;50.848;4.652;2024-02-26T16:09:38;89.72;;;81.97;;
34836;SDS011;21053;50.848;4.652;2024-02-26T16:12:15;106.85;;;96.63;;
34836;SDS011;21053;50.848;4.652;2024-02-26T16:14:57;131.82;;;120.18;;
34836;SDS011;21053;50.848;4.652;2024-02-26T16:17:29;113.85;;;104.00;;
34836;SDS011;21053;50.848;4.652;2024-02-26T16:22:34;145.88;;;132.93;;
34836;SDS011;21053;50.848;4.652;2024-02-26T16:25:07;127.57;;;115.88;;
34836;SDS011;21053;50.848;4.652;2024-02-26T16:27:39;138.68;;;126.50;;
34836;SDS011;21053;50.848;4.652;2024-02-26T16:30:10;137.95;;;125.35;;
34836;SDS011;21053;50.848;4.652;2024-02-26T16:32:40;146.50;;;133.48;;
34836;SDS011;21053;50.848;4.652;2024-02-26T16:35:07;129.80;;;118.28;;
34836;SDS011;21053;50.848;4.652;2024-02-26T16:38:40;102.82;;;93.72;;
34836;SDS011;21053;50.848;4.652;2024-02-26T16:41:06;141.68;;;129.10;;
34836;SDS011;21053;50.848;4.652;2024-02-26T16:43:35;110.10;;;100.25;;
34836;SDS011;21053;50.848;4.652;2024-02-26T16:48:39;108.05;;;98.20;;
34836;SDS011;21053;50.848;4.652;2024-02-26T16:51:08;120.50;;;109.55;;
34836;SDS011;21053;50.848;4.652;2024-02-26T16:53:37;131.65;;;119.97;;
34836;SDS011;21053;50.848;4.652;2024-02-26T16:56:08;117.95;;;107.03;;
34836;SDS011;21053;50.848;4.652;2024-02-26T16:58:39;112.80;;;102.35;;
34836;SDS011;21053;50.848;4.652;2024-02-26T17:02:15;155.05;;;140.55;;
34836;SDS011;21053;50.848;4.652;2024-02-26T17:04:41;97.65;;;89.32;;
34836;SDS011;21053;50.848;4.652;2024-02-26T17:07:07;112.40;;;102.35;;
34836;SDS011;21053;50.848;4.652;2024-02-26T17:09:35;110.25;;;100.55;;
34836;SDS011;21053;50.848;4.652;2024-02-26T17:12:04;99.10;;;89.70;;
34836;SDS011;21053;50.848;4.652;2024-02-26T17:14:30;147.40;;;134.02;;
34836;SDS011;21053;50.848;4.652;2024-02-26T17:19:27;109.20;;;99.72;;
34836;SDS011;21053;50.848;4.652;2024-02-26T17:21:54;92.72;;;84.60;;
34836;SDS011;21053;50.848;4.652;2024-02-26T17:24:21;128.68;;;116.95;;
34836;SDS011;21053;50.848;4.652;2024-02-26T17:29:15;98.63;;;89.57;;
34836;SDS011;21053;50.848;4.652;2024-02-26T17:34:16;116.80;;;106.38;;